createdAt,value
2022-11-03T00:01:41.281Z,12.87
2022-11-03T00:04:12.687Z,12.77
2022-11-03T00:06:41.100Z,12.92
2022-11-03T00:09:12.359Z,12.90
2022-11-03T00:11:40.485Z,12.82
2022-11-03T00:14:09.346Z,13.00
2022-11-03T00:16:36.254Z,12.97
2022-11-03T00:19:03.412Z,12.93
2022-11-03T00:21:30.072Z,12.90
2022-11-03T00:23:56.793Z,12.92
2022-11-03T00:26:27.966Z,12.96
2022-11-03T00:29:00.650Z,13.26
2022-11-03T00:31:32.445Z,13.44
2022-11-03T00:34:02.191Z,13.54
2022-11-03T00:36:30.897Z,13.61
2022-11-03T00:39:00.026Z,13.72
2022-11-03T00:41:26.907Z,13.77
2022-11-03T00:43:57.305Z,13.64
2022-11-03T00:46:25.194Z,13.47
2022-11-03T00:48:52.026Z,13.28
2022-11-03T00:51:34.047Z,13.19
2022-11-03T00:54:03.429Z,13.14
2022-11-03T00:56:37.800Z,13.01
2022-11-03T00:59:08.048Z,13.00
2022-11-03T01:01:47.024Z,13.12
2022-11-03T01:04:34.974Z,13.06
2022-11-03T01:07:02.346Z,12.94
2022-11-03T01:09:39.906Z,12.93
2022-11-03T01:12:16.801Z,13.00
2022-11-03T01:14:46.421Z,13.05
2022-11-03T01:17:15.833Z,12.80
2022-11-03T01:19:42.955Z,12.67
2022-11-03T01:22:11.263Z,12.66
2022-11-03T01:24:41.118Z,12.53
2022-11-03T01:27:09.256Z,12.70
2022-11-03T01:29:35.874Z,12.87
2022-11-03T01:32:02.452Z,12.86
2022-11-03T01:34:29.044Z,12.61
2022-11-03T01:36:55.616Z,12.64
2022-11-03T01:39:22.314Z,12.52
2022-11-03T01:41:51.282Z,12.61
2022-11-03T01:44:17.760Z,12.79
2022-11-03T01:46:55.608Z,12.83
2022-11-03T01:49:26.172Z,12.93
2022-11-03T01:51:57.590Z,12.67
2022-11-03T01:54:26.456Z,12.60
2022-11-03T01:56:53.181Z,12.61
2022-11-03T01:59:21.662Z,12.53
2022-11-03T02:01:48.389Z,12.45
2022-11-03T02:04:27.530Z,12.42
2022-11-03T02:07:08.396Z,12.25
2022-11-03T02:09:34.987Z,12.31
2022-11-03T02:12:07.921Z,12.35
2022-11-03T02:14:45.433Z,12.50
2022-11-03T02:17:14.045Z,12.38
2022-11-03T02:19:44.877Z,12.33
2022-11-03T02:22:35.828Z,12.33
2022-11-03T02:25:05.325Z,12.29
2022-11-03T02:27:32.025Z,12.24
2022-11-03T02:29:59.688Z,12.33
2022-11-03T02:32:31.204Z,12.32
2022-11-03T02:35:06.139Z,12.43
2022-11-03T02:37:36.770Z,12.45
2022-11-03T02:40:19.008Z,12.41
2022-11-03T02:42:48.945Z,12.47
2022-11-03T02:45:18.297Z,12.48
2022-11-03T02:47:45.445Z,12.48
2022-11-03T02:50:12.181Z,12.28
2022-11-03T02:52:40.213Z,12.52
2022-11-03T02:55:35.995Z,12.51
2022-11-03T02:58:19.666Z,12.51
2022-11-03T03:00:52.096Z,12.50
2022-11-03T03:03:39.120Z,12.42
2022-11-03T03:06:11.483Z,12.41
2022-11-03T03:08:42.629Z,12.41
2022-11-03T03:11:11.710Z,12.44
2022-11-03T03:13:38.657Z,12.60
2022-11-03T03:16:11.746Z,12.59
2022-11-03T03:18:56.055Z,12.46
2022-11-03T03:21:24.017Z,12.59
2022-11-03T03:24:02.379Z,12.54
2022-11-03T03:26:38.971Z,12.51
2022-11-03T03:29:15.702Z,12.51
2022-11-03T03:31:47.366Z,12.44
2022-11-03T03:34:33.772Z,12.51
2022-11-03T03:37:03.622Z,12.58
2022-11-03T03:39:32.508Z,12.57
2022-11-03T03:42:01.740Z,12.67
2022-11-03T03:44:28.800Z,12.59
2022-11-03T03:47:05.650Z,12.72
2022-11-03T03:49:32.227Z,12.76
2022-11-03T03:51:59.224Z,12.65
2022-11-03T03:54:25.801Z,12.69
2022-11-03T03:56:57.761Z,12.62
2022-11-03T03:59:24.474Z,12.76
2022-11-03T04:01:51.163Z,12.76
2022-11-03T04:04:18.066Z,12.67
2022-11-03T04:06:44.719Z,12.83
2022-11-03T04:09:11.290Z,12.86
2022-11-03T04:11:56.427Z,12.72
2022-11-03T04:14:41.603Z,12.87
2022-11-03T04:17:38.557Z,13.09
2022-11-03T04:20:28.711Z,13.24
2022-11-03T04:22:55.340Z,13.58
2022-11-03T04:25:22.273Z,13.23
2022-11-03T04:27:48.895Z,13.36
2022-11-03T04:30:18.100Z,13.40
2022-11-03T04:32:46.478Z,13.43
2022-11-03T04:35:24.331Z,13.32
2022-11-03T04:37:56.930Z,13.45
2022-11-03T04:40:23.817Z,13.48
2022-11-03T04:42:50.588Z,13.38
2022-11-03T04:45:30.246Z,13.36
2022-11-03T04:47:59.446Z,13.21
2022-11-03T04:50:26.187Z,13.23
2022-11-03T04:52:56.359Z,12.94
2022-11-03T04:55:23.135Z,12.92
2022-11-03T04:58:04.547Z,12.87
2022-11-03T05:00:31.155Z,12.68
2022-11-03T05:02:57.938Z,12.63
2022-11-03T05:05:26.386Z,12.72
2022-11-03T05:07:55.979Z,12.64
2022-11-03T05:10:27.973Z,12.72
2022-11-03T05:12:55.790Z,12.76
2022-11-03T05:15:29.889Z,12.66
2022-11-03T05:17:57.680Z,12.74
2022-11-03T05:20:35.780Z,12.75
2022-11-03T05:23:04.753Z,12.79
2022-11-03T05:25:38.283Z,12.81
2022-11-03T05:28:13.932Z,12.88
2022-11-03T05:30:40.610Z,12.76
2022-11-03T05:33:25.466Z,12.79
2022-11-03T05:35:52.506Z,12.66
2022-11-03T05:38:20.298Z,12.74
2022-11-03T05:40:50.104Z,12.68
2022-11-03T05:43:16.901Z,12.72
2022-11-03T05:45:43.569Z,12.92
2022-11-03T05:48:31.193Z,12.90
2022-11-03T05:51:00.541Z,12.87
2022-11-03T05:53:32.467Z,12.89
2022-11-03T05:56:01.734Z,12.83
2022-11-03T05:58:34.433Z,12.77
2022-11-03T06:01:55.685Z,12.91
2022-11-03T06:05:02.722Z,12.76
2022-11-03T06:07:40.724Z,12.81
2022-11-03T06:10:26.525Z,12.79
2022-11-03T06:13:00.500Z,12.72
2022-11-03T06:15:37.096Z,12.66
2022-11-03T06:18:31.436Z,12.77
2022-11-03T06:21:02.227Z,12.72
2022-11-03T06:23:29.092Z,12.79
2022-11-03T06:25:56.630Z,12.83
2022-11-03T06:28:36.773Z,12.80
2022-11-03T06:31:05.757Z,12.80
2022-11-03T06:33:36.034Z,12.91
2022-11-03T06:36:12.651Z,12.98
2022-11-03T06:38:39.662Z,12.83
2022-11-03T06:41:20.268Z,12.90
2022-11-03T06:43:50.254Z,12.91
2022-11-03T06:46:29.420Z,12.80
2022-11-03T06:49:04.003Z,12.87
2022-11-03T06:51:39.172Z,13.00
2022-11-03T06:54:06.184Z,13.05
2022-11-03T06:56:36.659Z,12.94
2022-11-03T06:59:03.371Z,12.99
2022-11-03T07:01:37.107Z,13.11
2022-11-03T07:04:18.134Z,13.10
2022-11-03T07:06:50.361Z,13.02
2022-11-03T07:09:22.637Z,12.96
2022-11-03T07:11:51.717Z,13.05
2022-11-03T07:14:21.703Z,13.15
2022-11-03T07:17:05.563Z,12.98
2022-11-03T07:19:45.882Z,13.06
2022-11-03T07:22:21.110Z,13.10
2022-11-03T07:24:47.889Z,13.05
2022-11-03T07:27:17.443Z,13.12
2022-11-03T07:29:45.382Z,13.25
2022-11-03T07:32:33.495Z,13.40
2022-11-03T07:38:38.827Z,13.37
2022-11-03T07:41:08.905Z,13.38
2022-11-03T07:43:38.276Z,13.47
2022-11-03T07:46:05.477Z,13.46
2022-11-03T07:48:45.815Z,13.50
2022-11-03T07:51:18.518Z,13.71
2022-11-03T07:53:50.665Z,13.72
2022-11-03T07:56:25.794Z,13.87
2022-11-03T07:58:54.473Z,14.01
2022-11-03T08:01:30.620Z,13.93
2022-11-03T08:04:16.480Z,14.10
2022-11-03T08:06:46.296Z,14.11
2022-11-03T08:09:13.100Z,14.10
2022-11-03T08:12:04.323Z,14.17
2022-11-03T08:14:31.670Z,14.26
2022-11-03T08:16:58.324Z,14.07
2022-11-03T08:19:24.974Z,13.92
2022-11-03T08:21:51.569Z,14.05
2022-11-03T08:24:18.242Z,13.94
2022-11-03T08:26:44.883Z,13.71
2022-11-03T08:29:19.049Z,13.54
2022-11-03T08:31:54.030Z,13.82
2022-11-03T08:34:20.694Z,13.85
2022-11-03T08:36:47.705Z,13.89
2022-11-03T08:39:14.806Z,13.79
2022-11-03T08:41:44.136Z,13.81
2022-11-03T08:44:10.751Z,13.80
2022-11-03T08:46:37.664Z,13.88
2022-11-03T08:49:04.449Z,13.91
2022-11-03T08:51:31.125Z,13.86
2022-11-03T08:53:57.959Z,14.04
2022-11-03T08:56:24.658Z,14.03
2022-11-03T08:58:51.378Z,14.14
2022-11-03T09:01:18.190Z,14.17
2022-11-03T09:03:45.125Z,14.27
2022-11-03T09:06:11.793Z,14.25
2022-11-03T09:11:25.199Z,14.32
2022-11-03T09:13:51.806Z,14.42
2022-11-03T09:16:18.412Z,14.19
2022-11-03T09:18:45.628Z,14.48
2022-11-03T09:21:13.400Z,14.40
2022-11-03T09:23:40.258Z,14.52
2022-11-03T09:26:07.109Z,14.55
2022-11-03T09:28:33.772Z,14.39
2022-11-03T09:31:00.499Z,14.36
2022-11-03T09:33:27.423Z,14.50
2022-11-03T09:35:54.120Z,14.65
2022-11-03T09:38:20.983Z,14.75
2022-11-03T09:43:15.667Z,14.77
2022-11-03T09:45:42.373Z,14.51
2022-11-03T09:48:12.348Z,14.71
2022-11-03T09:50:39.774Z,14.72
2022-11-03T09:53:06.899Z,14.78
2022-11-03T09:55:34.088Z,14.88
2022-11-03T09:58:02.378Z,14.80
2022-11-03T10:00:29.089Z,14.77
2022-11-03T10:02:56.071Z,14.87
2022-11-03T10:05:27.237Z,14.91
2022-11-03T10:07:58.229Z,14.84
2022-11-03T10:10:25.127Z,14.79
2022-11-03T10:13:12.741Z,14.84
2022-11-03T10:15:42.179Z,14.99
2022-11-03T10:18:10.228Z,15.09
2022-11-03T10:20:37.119Z,15.17
2022-11-03T10:23:04.086Z,15.05
2022-11-03T10:25:37.382Z,15.06
2022-11-03T10:28:24.625Z,15.58
2022-11-03T10:31:10.640Z,15.58
2022-11-03T10:33:53.034Z,15.36
2022-11-03T10:36:20.142Z,15.50
2022-11-03T10:38:47.881Z,15.45
2022-11-03T10:41:24.785Z,15.35
2022-11-03T10:44:21.875Z,15.25
2022-11-03T10:47:03.645Z,15.33
2022-11-03T10:49:31.861Z,15.45
2022-11-03T10:52:20.695Z,15.45
2022-11-03T10:54:48.455Z,15.46
2022-11-03T10:57:25.677Z,15.55
2022-11-03T10:59:54.845Z,15.63
2022-11-03T11:02:24.949Z,15.71
2022-11-03T11:04:59.674Z,15.67
2022-11-03T11:07:29.607Z,15.79
2022-11-03T11:09:56.469Z,15.85
2022-11-03T11:12:25.330Z,15.67
2022-11-03T11:14:59.495Z,15.66
2022-11-03T11:17:55.673Z,15.83
2022-11-03T11:20:42.522Z,15.83
2022-11-03T11:23:35.729Z,16.03
2022-11-03T11:26:16.264Z,16.18
2022-11-03T11:28:47.690Z,16.56
2022-11-03T11:31:33.232Z,16.55
2022-11-03T11:34:08.862Z,16.47
2022-11-03T11:36:36.788Z,16.50
2022-11-03T11:39:08.288Z,16.45
2022-11-03T11:42:13.567Z,16.61
2022-11-03T11:44:43.176Z,16.48
2022-11-03T11:47:34.759Z,16.49
2022-11-03T11:50:10.723Z,16.23
2022-11-03T11:53:50.922Z,16.18
2022-11-03T11:56:43.163Z,16.29
2022-11-03T11:59:25.282Z,16.17
2022-11-03T12:01:57.444Z,16.60
2022-11-03T12:04:33.469Z,16.55
2022-11-03T12:07:03.157Z,16.59
2022-11-03T12:09:33.330Z,16.57
2022-11-03T12:12:08.405Z,16.63
2022-11-03T12:14:40.469Z,16.55
2022-11-03T12:17:16.904Z,16.15
2022-11-03T12:19:47.534Z,16.02
2022-11-03T12:22:23.371Z,15.91
2022-11-03T12:25:04.097Z,15.66
2022-11-03T12:27:30.792Z,15.81
2022-11-03T12:30:05.112Z,15.76
2022-11-03T12:32:37.774Z,15.84
2022-11-03T12:35:12.477Z,15.79
2022-11-03T12:37:50.345Z,15.73
2022-11-03T12:40:17.086Z,15.96
2022-11-03T12:42:43.916Z,15.86
2022-11-03T12:45:13.856Z,15.97
2022-11-03T12:47:42.977Z,15.89
2022-11-03T12:50:10.147Z,15.71
2022-11-03T12:52:42.962Z,15.70
2022-11-03T12:55:09.878Z,15.58
2022-11-03T12:57:36.670Z,15.60
2022-11-03T13:00:23.795Z,15.53
2022-11-03T13:02:50.739Z,15.57
2022-11-03T13:05:17.638Z,15.46
2022-11-03T13:07:47.534Z,15.55
2022-11-03T13:10:14.593Z,15.54
2022-11-03T13:12:41.770Z,15.49
2022-11-03T13:15:13.228Z,15.54
2022-11-03T13:18:13.228Z,15.58
2022-11-03T13:20:41.146Z,15.60
2022-11-03T13:23:08.366Z,15.55
2022-11-03T13:25:36.936Z,15.62
2022-11-03T13:28:04.101Z,15.56
2022-11-03T13:30:33.528Z,15.27
2022-11-03T13:33:00.531Z,15.33
2022-11-03T13:35:27.361Z,15.31
2022-11-03T13:37:58.204Z,15.31
2022-11-03T13:40:55.672Z,15.31
2022-11-03T13:43:34.687Z,15.25
2022-11-03T13:46:40.566Z,15.07
2022-11-03T13:52:15.058Z,15.17
2022-11-03T16:23:25.475Z,13.33
2022-11-03T17:06:16.933Z,12.72
2022-11-03T17:08:55.774Z,12.90
2022-11-03T17:18:28.238Z,12.68
2022-11-03T17:25:20.210Z,12.79
2022-11-03T17:27:59.559Z,12.86
2022-11-03T17:30:31.925Z,12.73
2022-11-03T17:33:05.376Z,12.82
2022-11-03T17:35:43.482Z,12.95
2022-11-03T17:38:23.256Z,12.90
2022-11-03T17:41:07.930Z,12.92
2022-11-03T17:43:58.716Z,12.91
2022-11-03T17:46:28.019Z,12.89
2022-11-03T17:49:20.526Z,12.77
2022-11-03T17:51:47.717Z,12.94
2022-11-03T17:54:19.062Z,12.80
2022-11-03T17:56:53.787Z,12.85
2022-11-03T17:59:27.336Z,12.98
2022-11-03T18:01:54.722Z,12.92
2022-11-03T18:04:28.917Z,13.12
2022-11-03T18:07:29.406Z,13.06
2022-11-03T18:09:58.444Z,12.99
2022-11-03T18:13:09.082Z,13.04
2022-11-03T18:15:43.170Z,13.04
2022-11-03T18:18:36.948Z,13.07
2022-11-03T18:21:17.938Z,13.17
2022-11-03T18:23:45.230Z,13.07
2022-11-03T18:26:25.263Z,13.09
2022-11-03T18:28:52.554Z,13.14
2022-11-03T18:32:23.876Z,13.14
2022-11-03T18:35:15.221Z,13.32
2022-11-03T18:42:12.614Z,13.29
2022-11-03T18:44:43.211Z,13.24
2022-11-03T18:47:11.051Z,13.11
2022-11-03T18:50:40.662Z,13.02
2022-11-03T18:58:21.623Z,13.07
2022-11-03T19:00:57.621Z,13.04
2022-11-03T19:07:57.191Z,12.93
2022-11-03T19:10:26.137Z,13.00
2022-11-03T19:12:55.344Z,13.04
2022-11-03T19:58:35.924Z,12.98
2022-11-03T20:06:57.809Z,13.01
2022-11-03T20:09:47.366Z,13.12
2022-11-03T20:48:48.310Z,13.08
2022-11-03T20:54:59.304Z,13.24
2022-11-03T21:05:25.431Z,13.19
2022-11-03T21:12:02.468Z,13.44
2022-11-03T21:15:07.702Z,13.38
2022-11-03T21:22:51.919Z,13.46
2022-11-03T21:24:14.769Z,13.53
2022-11-03T21:26:50.918Z,13.43
2022-11-03T21:29:33.158Z,13.34
2022-11-03T21:32:14.266Z,13.33
2022-11-03T21:34:42.050Z,13.40
2022-11-03T21:37:15.085Z,13.44
2022-11-03T21:39:42.968Z,13.58
2022-11-03T21:42:29.050Z,13.53
2022-11-03T21:44:57.229Z,13.55
2022-11-03T21:47:24.081Z,13.46
2022-11-03T21:49:50.872Z,13.45
2022-11-03T21:52:31.710Z,13.41
2022-11-03T21:54:59.835Z,13.58
2022-11-03T21:57:27.691Z,13.68
2022-11-03T21:59:58.698Z,13.69
2022-11-03T22:02:26.799Z,13.64
2022-11-03T22:04:57.028Z,13.61
2022-11-03T22:07:24.067Z,13.64
2022-11-03T22:09:50.806Z,13.59
2022-11-03T22:12:17.462Z,13.57
2022-11-03T22:15:02.706Z,13.48
2022-11-03T22:17:29.303Z,13.32
2022-11-03T22:20:14.605Z,13.33
2022-11-03T22:22:59.707Z,13.36
2022-11-03T22:25:45.022Z,13.29
2022-11-03T22:28:14.610Z,13.26
2022-11-03T22:31:01.483Z,13.44
2022-11-03T22:33:28.635Z,13.32
2022-11-03T22:36:21.262Z,13.23
2022-11-03T22:39:07.048Z,13.14
2022-11-03T22:41:52.586Z,13.10
2022-11-03T22:44:37.635Z,13.05
2022-11-03T22:47:06.863Z,12.86
2022-11-03T22:49:35.126Z,12.51
2022-11-03T22:52:01.744Z,12.53
2022-11-03T22:54:28.383Z,12.32
2022-11-03T22:56:55.033Z,12.31
2022-11-03T22:59:23.091Z,12.23
2022-11-03T23:01:49.747Z,12.17
2022-11-03T23:04:16.682Z,12.35
2022-11-03T23:06:43.250Z,12.51
2022-11-03T23:09:11.606Z,12.42
2022-11-03T23:11:38.667Z,12.74
2022-11-03T23:14:23.220Z,12.83
2022-11-03T23:16:56.960Z,12.92
2022-11-03T23:19:54.993Z,13.15
2022-11-03T23:22:23.575Z,13.11
2022-11-03T23:24:59.301Z,12.94
2022-11-03T23:27:26.074Z,12.68
2022-11-03T23:30:03.370Z,12.86
2022-11-03T23:32:30.689Z,12.98
2022-11-03T23:34:57.567Z,12.83
2022-11-03T23:37:27.176Z,12.93
2022-11-03T23:39:53.842Z,12.83
2022-11-03T23:42:20.432Z,13.02
2022-11-03T23:45:05.797Z,12.69
2022-11-03T23:47:51.070Z,12.69
2022-11-03T23:50:17.762Z,12.42
2022-11-03T23:52:47.392Z,12.37
2022-11-03T23:55:14.026Z,12.39
2022-11-03T23:57:59.366Z,12.44
